Fallon, Montana
Current Conditions -  °F | °C
As of 11:35 PM on Wednesday 28 Jan 2015 (Local Time) from KGDV Reporting Station
Scattered Clouds Scattered Clouds  
Wind Chill: 20°   Ceiling: Unl
Heat Index: 30°   Visibility: 10mi
Dew Point: 25°   Wind: 14mph
Humidity: 80%   Direction: 300°WNW
Pressure: 30.38"   Gusts: 18mph
Location:  46.83°N, 105.13°W
Report Text: KGDV 290635Z AUTO 30012G16KT 10SM SCT025 M01/M04 A3038 RMK AO1
Loading
Personal Weather Stations






























Interactive Weather Map New forecast layout! Learn more

10-Day Weather Forecast

Advertisements
Track Severe Weather on mobile